createdAt,value
2018-10-06T00:00:18.258Z,12.00
2018-10-06T00:02:50.095Z,12.10
2018-10-06T00:05:22.333Z,12.20
2018-10-06T00:07:53.248Z,12.20
2018-10-06T00:10:23.718Z,12.20
2018-10-06T00:12:54.478Z,12.20
2018-10-06T00:15:25.307Z,12.10
2018-10-06T00:17:55.817Z,12.00
2018-10-06T00:20:27.203Z,12.00
2018-10-06T00:22:58.225Z,11.90
2018-10-06T00:25:29.222Z,11.90
2018-10-06T00:28:00.082Z,11.80
2018-10-06T00:30:30.555Z,11.70
2018-10-06T00:33:01.058Z,11.70
2018-10-06T00:35:32.411Z,11.60
2018-10-06T00:38:02.897Z,11.50
2018-10-06T00:40:33.684Z,11.50
2018-10-06T00:43:04.903Z,11.40
2018-10-06T00:45:35.723Z,11.40
2018-10-06T00:48:06.743Z,11.40
2018-10-06T00:50:37.568Z,11.40
2018-10-06T00:53:08.448Z,11.30
2018-10-06T00:55:39.370Z,11.20
2018-10-06T00:58:10.350Z,11.20
2018-10-06T01:00:41.242Z,11.10
2018-10-06T01:03:12.074Z,11.10
2018-10-06T01:05:43.125Z,11.00
2018-10-06T01:08:13.547Z,11.10
2018-10-06T01:10:44.595Z,11.10
2018-10-06T01:13:15.146Z,11.00
2018-10-06T01:15:46.217Z,11.00
2018-10-06T01:18:16.875Z,11.00
2018-10-06T01:20:47.349Z,11.00
2018-10-06T01:23:18.835Z,10.90
2018-10-06T01:25:49.478Z,11.00
2018-10-06T01:28:20.622Z,10.90
2018-10-06T01:30:51.095Z,10.80
2018-10-06T01:33:22.332Z,10.90
2018-10-06T01:35:53.135Z,10.80
2018-10-06T01:38:24.263Z,10.80
2018-10-06T01:40:54.828Z,10.80
2018-10-06T01:43:26.068Z,10.80
2018-10-06T01:45:56.698Z,10.80
2018-10-06T01:48:27.491Z,10.90
2018-10-06T01:50:59.173Z,10.90
2018-10-06T01:53:29.679Z,11.00
2018-10-06T01:56:01.490Z,11.00
2018-10-06T01:58:32.091Z,11.10
2018-10-06T02:01:04.259Z,11.20
2018-10-06T02:03:34.779Z,11.20
2018-10-06T02:06:06.341Z,11.20
2018-10-06T02:08:36.836Z,11.20
2018-10-06T02:11:08.144Z,11.20
2018-10-06T02:13:38.624Z,11.30
2018-10-06T02:16:09.142Z,11.30
2018-10-06T02:18:40.880Z,11.30
2018-10-06T02:21:12.138Z,11.40
2018-10-06T02:23:42.676Z,11.40
2018-10-06T02:26:13.255Z,11.40
2018-10-06T02:28:44.382Z,11.30
2018-10-06T02:31:14.907Z,11.20
2018-10-06T02:33:46.357Z,11.20
2018-10-06T02:36:16.894Z,11.10
2018-10-06T02:38:48.726Z,11.10
2018-10-06T02:41:20.279Z,11.10
2018-10-06T02:43:51.875Z,11.20
2018-10-06T02:46:22.374Z,11.30
2018-10-06T02:48:53.811Z,11.50
2018-10-06T02:51:24.314Z,11.50
2018-10-06T02:53:56.310Z,11.60
2018-10-06T02:56:26.814Z,11.70
2018-10-06T02:58:57.259Z,11.60
2018-10-06T03:01:27.730Z,11.60
2018-10-06T03:03:58.938Z,11.50
2018-10-06T03:06:29.427Z,11.50
2018-10-06T03:09:00.547Z,11.50
2018-10-06T03:11:31.042Z,11.50
2018-10-06T03:14:02.873Z,11.50
2018-10-06T03:16:33.403Z,11.40
2018-10-06T03:19:03.824Z,11.40
2018-10-06T03:21:35.206Z,11.30
2018-10-06T03:24:05.746Z,11.20
2018-10-06T03:26:37.355Z,11.20
2018-10-06T03:29:07.831Z,11.10
2018-10-06T03:31:39.535Z,11.10
2018-10-06T03:34:10.461Z,11.00
2018-10-06T03:36:40.914Z,11.00
2018-10-06T03:39:11.448Z,11.00
2018-10-06T03:41:42.582Z,11.00
2018-10-06T03:44:13.080Z,10.90
2018-10-06T03:46:43.571Z,10.90
2018-10-06T03:49:14.897Z,10.80
2018-10-06T03:51:45.355Z,10.80
2018-10-06T03:54:16.831Z,10.80
2018-10-06T03:56:47.321Z,10.80
2018-10-06T03:59:18.625Z,10.70
2018-10-06T04:01:49.765Z,10.70
2018-10-06T04:04:20.824Z,10.70
2018-10-06T04:06:51.801Z,10.60
2018-10-06T04:09:22.284Z,10.50
2018-10-06T04:11:52.783Z,10.50
2018-10-06T04:14:23.412Z,10.40
2018-10-06T04:16:54.422Z,10.40
2018-10-06T04:19:24.911Z,10.40
2018-10-06T04:21:56.014Z,10.40
2018-10-06T04:24:26.789Z,10.40
2018-10-06T04:26:58.239Z,10.40
2018-10-06T04:29:28.838Z,10.40
2018-10-06T04:31:59.674Z,10.40
2018-10-06T04:34:30.541Z,10.30
2018-10-06T04:37:01.381Z,10.30
2018-10-06T04:39:31.982Z,10.20
2018-10-06T04:42:02.487Z,10.30
2018-10-06T04:44:33.551Z,10.30
2018-10-06T04:47:04.150Z,10.40
2018-10-06T04:49:35.556Z,10.60
2018-10-06T04:52:06.536Z,10.80
2018-10-06T04:54:37.643Z,11.00
2018-10-06T04:57:08.321Z,11.10
2018-10-06T04:59:39.569Z,11.30
2018-10-06T05:02:10.184Z,11.50
2018-10-06T05:04:41.072Z,11.60
2018-10-06T05:07:11.532Z,11.50
2018-10-06T05:09:42.456Z,11.50
2018-10-06T05:12:13.792Z,11.40
2018-10-06T05:14:44.431Z,11.30
2018-10-06T05:17:15.501Z,11.20
2018-10-06T05:19:46.165Z,11.20
2018-10-06T05:22:17.127Z,11.30
2018-10-06T05:24:47.637Z,11.30
2018-10-06T05:27:18.870Z,11.40
2018-10-06T05:29:49.573Z,11.40
2018-10-06T05:32:20.731Z,11.50
2018-10-06T05:34:51.324Z,11.50
2018-10-06T05:37:22.923Z,11.40
2018-10-06T05:39:53.575Z,11.40
2018-10-06T05:42:24.522Z,11.20
2018-10-06T05:44:55.037Z,11.10
2018-10-06T05:47:25.484Z,11.00
2018-10-06T05:49:55.962Z,11.00
2018-10-06T05:52:26.786Z,10.90
2018-10-06T05:54:57.257Z,10.90
2018-10-06T05:57:28.516Z,11.10
2018-10-06T05:59:58.968Z,11.20
2018-10-06T06:02:30.600Z,11.30
2018-10-06T06:05:01.059Z,11.30
2018-10-06T06:07:32.322Z,11.30
2018-10-06T06:10:03.064Z,11.40
2018-10-06T06:12:34.363Z,11.40
2018-10-06T06:15:05.320Z,11.40
2018-10-06T06:17:35.830Z,11.30
2018-10-06T06:20:06.345Z,11.40
2018-10-06T06:22:36.787Z,11.50
2018-10-06T06:25:08.762Z,11.70
2018-10-06T06:27:39.264Z,11.70
2018-10-06T06:30:10.652Z,11.80
2018-10-06T06:32:41.102Z,11.80
2018-10-06T06:35:12.509Z,12.00
2018-10-06T06:37:42.994Z,12.00
2018-10-06T06:40:14.353Z,12.20
2018-10-06T06:42:44.819Z,12.30
2018-10-06T06:45:15.282Z,12.40
2018-10-06T06:47:45.866Z,12.40
2018-10-06T06:50:16.319Z,12.50
2018-10-06T06:52:47.120Z,12.60
2018-10-06T06:55:17.591Z,12.70
2018-10-06T06:57:48.470Z,12.90
2018-10-06T07:00:19.123Z,13.10
2018-10-06T07:02:50.223Z,13.30
2018-10-06T07:05:23.417Z,13.50
2018-10-06T07:07:57.265Z,13.70
2018-10-06T07:10:28.143Z,13.90
2018-10-06T07:12:58.627Z,14.00
2018-10-06T07:15:29.162Z,14.10
2018-10-06T07:17:59.791Z,14.10
2018-10-06T07:20:30.278Z,14.10
2018-10-06T07:23:00.815Z,14.10
2018-10-06T07:25:31.624Z,14.30
2018-10-06T07:28:02.134Z,14.40
2018-10-06T07:30:33.215Z,14.60
2018-10-06T07:33:03.812Z,15.10
2018-10-06T07:35:34.922Z,16.70
2018-10-06T07:38:05.578Z,19.40
2018-10-06T07:40:36.104Z,21.60
2018-10-06T07:43:07.080Z,23.30
2018-10-06T07:45:37.648Z,24.10
2018-10-06T07:48:08.197Z,25.70
2018-10-06T07:50:39.202Z,26.20
2018-10-06T07:53:09.908Z,26.60
2018-10-06T07:55:40.651Z,28.00
2018-10-06T07:58:12.186Z,28.20
2018-10-06T08:00:42.716Z,27.90
2018-10-06T08:03:14.479Z,28.70
2018-10-06T08:05:44.959Z,29.20
2018-10-06T08:08:16.390Z,28.50
2018-10-06T08:10:47.575Z,27.70
2018-10-06T08:13:18.337Z,27.80
2018-10-06T08:15:49.517Z,28.20
2018-10-06T08:18:21.411Z,28.40
2018-10-06T08:20:52.149Z,28.60
2018-10-06T08:23:22.613Z,28.80
2018-10-06T08:25:53.121Z,29.50
2018-10-06T08:28:24.410Z,29.90
2018-10-06T08:30:55.031Z,29.50
2018-10-06T08:33:26.103Z,29.60
2018-10-06T08:35:56.651Z,29.70
2018-10-06T08:38:27.726Z,30.10
2018-10-06T08:40:58.183Z,29.90
2018-10-06T08:43:28.851Z,29.80
2018-10-06T08:45:59.326Z,30.00
2018-10-06T08:48:30.194Z,30.30
2018-10-06T08:51:00.916Z,30.70
2018-10-06T08:53:31.599Z,30.40
2018-10-06T08:56:02.176Z,30.90
2018-10-06T08:58:32.965Z,31.20
2018-10-06T09:01:03.438Z,31.50
2018-10-06T09:03:34.339Z,31.40
2018-10-06T09:06:05.326Z,31.40
2018-10-06T09:08:35.891Z,32.30
2018-10-06T09:11:06.991Z,32.50
2018-10-06T09:13:37.498Z,32.50
2018-10-06T09:16:09.144Z,32.30
2018-10-06T09:18:39.966Z,32.60
2018-10-06T09:21:10.930Z,33.10
2018-10-06T09:23:41.647Z,32.80
2018-10-06T09:26:12.406Z,32.70
2018-10-06T09:28:43.190Z,32.30
2018-10-06T09:31:13.731Z,32.40
2018-10-06T09:33:44.403Z,32.20
2018-10-06T09:36:14.874Z,32.00
2018-10-06T09:38:45.354Z,32.10
2018-10-06T09:41:16.578Z,32.60
2018-10-06T09:43:47.447Z,32.80
2018-10-06T09:46:18.920Z,32.80
2018-10-06T09:48:49.606Z,32.30
2018-10-06T09:51:21.118Z,31.80
2018-10-06T09:53:51.668Z,32.30
2018-10-06T09:56:23.168Z,32.00
2018-10-06T09:58:54.077Z,31.90
2018-10-06T10:01:30.204Z,32.20
2018-10-06T10:04:06.223Z,32.30
2018-10-06T10:06:36.736Z,32.10
2018-10-06T10:09:10.372Z,32.10
2018-10-06T10:11:41.061Z,31.80
2018-10-06T10:14:12.542Z,31.30
2018-10-06T10:16:43.042Z,31.50
2018-10-06T10:19:14.373Z,32.00
2018-10-06T10:21:45.008Z,31.80
2018-10-06T10:24:15.468Z,31.60
2018-10-06T10:26:46.347Z,31.60
2018-10-06T10:29:16.884Z,31.90
2018-10-06T10:31:48.175Z,31.50
2018-10-06T10:34:18.724Z,31.10
2018-10-06T10:36:49.230Z,30.60
2018-10-06T10:39:20.220Z,30.40
2018-10-06T10:41:50.966Z,30.50
2018-10-06T10:44:22.243Z,30.90
2018-10-06T10:46:52.854Z,31.10
2018-10-06T10:49:23.870Z,31.10
2018-10-06T10:51:54.494Z,30.90
2018-10-06T10:54:25.525Z,30.50
2018-10-06T10:56:56.023Z,30.40
2018-10-06T10:59:27.498Z,30.60
2018-10-06T11:01:58.008Z,30.70
2018-10-06T11:04:28.462Z,30.90
2018-10-06T11:06:59.202Z,30.90
2018-10-06T11:09:29.807Z,30.60
2018-10-06T11:12:00.772Z,30.60
2018-10-06T11:14:31.656Z,30.40
2018-10-06T11:17:02.214Z,30.00
2018-10-06T11:19:33.230Z,30.00
2018-10-06T11:22:03.706Z,30.00
2018-10-06T11:24:34.577Z,30.10
2018-10-06T11:27:05.148Z,30.10
2018-10-06T11:29:36.023Z,29.60
2018-10-06T11:32:06.842Z,29.30
2018-10-06T11:34:37.346Z,29.10
2018-10-06T11:37:08.137Z,28.50
2018-10-06T11:39:38.776Z,28.70
2018-10-06T11:42:09.230Z,28.50
2018-10-06T11:44:39.750Z,28.20
2018-10-06T11:47:10.588Z,28.00
2018-10-06T11:49:41.144Z,27.80
2018-10-06T11:52:11.570Z,27.50
2018-10-06T11:54:42.154Z,27.40
2018-10-06T11:57:13.281Z,27.70
2018-10-06T11:59:43.958Z,27.70
2018-10-06T12:02:14.330Z,27.70
2018-10-06T12:04:44.816Z,27.70
2018-10-06T12:07:15.332Z,27.60
2018-10-06T12:09:46.171Z,27.60
2018-10-06T12:12:16.729Z,27.60
2018-10-06T12:14:47.571Z,27.60
2018-10-06T12:17:18.282Z,27.40
2018-10-06T12:19:48.934Z,27.30
2018-10-06T12:22:20.174Z,27.20
2018-10-06T12:24:50.768Z,27.10
2018-10-06T12:27:21.647Z,27.30
2018-10-06T12:29:52.135Z,27.20
2018-10-06T12:32:22.722Z,27.20
2018-10-06T12:34:53.680Z,27.30
2018-10-06T12:37:24.097Z,27.30
2018-10-06T12:39:55.375Z,27.40
2018-10-06T12:42:25.851Z,27.50
2018-10-06T12:44:56.770Z,27.60
2018-10-06T12:47:27.320Z,27.50
2018-10-06T12:49:58.296Z,27.60
2018-10-06T12:52:28.754Z,27.70
2018-10-06T12:54:59.729Z,27.30
2018-10-06T12:57:30.221Z,27.10
2018-10-06T13:00:01.111Z,27.10
2018-10-06T13:02:31.582Z,26.90
2018-10-06T13:05:02.895Z,26.70
2018-10-06T13:07:33.742Z,26.50
2018-10-06T13:10:04.375Z,26.30
2018-10-06T13:12:35.390Z,26.40
2018-10-06T13:15:05.858Z,26.60
2018-10-06T13:17:36.881Z,26.60
2018-10-06T13:20:07.460Z,26.60
2018-10-06T13:22:39.001Z,26.70
2018-10-06T13:25:09.209Z,26.80
2018-10-06T13:27:40.612Z,26.90
2018-10-06T13:30:11.055Z,26.90
2018-10-06T13:32:43.204Z,26.80
2018-10-06T13:35:13.647Z,26.70
2018-10-06T13:37:44.333Z,26.60
2018-10-06T13:40:15.175Z,26.50
2018-10-06T13:42:45.725Z,26.60
2018-10-06T13:45:16.876Z,26.60
2018-10-06T13:47:47.309Z,26.50
2018-10-06T13:50:18.259Z,26.40
2018-10-06T13:52:48.727Z,26.40
2018-10-06T13:55:19.716Z,26.50
2018-10-06T13:57:50.252Z,26.50
2018-10-06T14:00:21.957Z,26.40
2018-10-06T14:02:52.838Z,26.10
2018-10-06T14:05:23.399Z,25.90
2018-10-06T14:07:54.581Z,25.90
2018-10-06T14:10:25.087Z,25.70
2018-10-06T14:12:56.151Z,25.70
2018-10-06T14:15:26.643Z,25.50
2018-10-06T14:17:57.860Z,25.30
2018-10-06T14:20:28.389Z,25.20
2018-10-06T14:22:59.445Z,25.20
2018-10-06T14:25:29.946Z,25.30
2018-10-06T14:28:00.966Z,25.20
2018-10-06T14:30:31.634Z,25.30
2018-10-06T14:33:02.190Z,25.30
2018-10-06T14:35:33.105Z,25.20
2018-10-06T14:38:03.636Z,25.20
2018-10-06T14:40:35.727Z,25.10
2018-10-06T14:43:06.255Z,25.10
2018-10-06T14:45:37.477Z,25.00
2018-10-06T14:48:07.908Z,24.90
2018-10-06T14:50:39.254Z,24.90
2018-10-06T14:53:09.826Z,24.80
2018-10-06T14:55:40.696Z,24.70
2018-10-06T14:58:11.174Z,24.60
2018-10-06T15:00:41.633Z,24.60
2018-10-06T15:03:12.522Z,24.60
2018-10-06T15:05:43.092Z,24.60
2018-10-06T15:08:14.054Z,24.60
2018-10-06T15:10:44.558Z,24.50
2018-10-06T15:13:15.725Z,24.40
2018-10-06T15:15:46.210Z,24.30
2018-10-06T15:18:17.182Z,24.30
2018-10-06T15:20:47.662Z,24.20
2018-10-06T15:23:18.886Z,24.20
2018-10-06T15:25:49.335Z,24.10
2018-10-06T15:28:19.823Z,24.10
2018-10-06T15:30:51.015Z,24.10
2018-10-06T15:33:21.663Z,24.10
2018-10-06T15:35:52.874Z,24.10
2018-10-06T15:38:23.412Z,23.90
2018-10-06T15:40:54.625Z,23.90
2018-10-06T15:43:25.130Z,23.80
2018-10-06T15:45:56.107Z,23.70
2018-10-06T15:48:26.864Z,23.70
2018-10-06T15:50:57.526Z,23.70
2018-10-06T15:53:28.260Z,23.60
2018-10-06T15:55:58.732Z,23.60
2018-10-06T15:58:29.625Z,23.50
2018-10-06T16:01:00.126Z,23.50
2018-10-06T16:03:30.747Z,23.50
2018-10-06T16:06:01.286Z,23.40
2018-10-06T16:08:31.791Z,23.30
2018-10-06T16:11:02.364Z,23.20
2018-10-06T16:13:33.005Z,23.10
2018-10-06T16:16:03.731Z,23.10
2018-10-06T16:18:34.274Z,23.00
2018-10-06T16:21:05.726Z,22.90
2018-10-06T16:23:36.452Z,22.80
2018-10-06T16:26:07.130Z,22.70
2018-10-06T16:28:37.618Z,22.60
2018-10-06T16:31:08.507Z,22.60
2018-10-06T16:33:39.071Z,22.50
2018-10-06T16:36:09.796Z,22.50
2018-10-06T16:38:40.351Z,22.40
2018-10-06T16:41:10.848Z,22.30
2018-10-06T16:43:41.891Z,22.20
2018-10-06T16:46:12.345Z,22.10
2018-10-06T16:48:42.940Z,22.00
2018-10-06T16:51:13.878Z,22.00
2018-10-06T16:53:44.355Z,21.90
2018-10-06T16:56:15.216Z,21.80
2018-10-06T16:58:45.706Z,21.60
2018-10-06T17:01:16.472Z,21.60
2018-10-06T17:03:46.958Z,21.50
2018-10-06T17:06:17.501Z,21.50
2018-10-06T17:08:48.345Z,21.40
2018-10-06T17:11:18.826Z,21.30
2018-10-06T17:13:49.763Z,21.20
2018-10-06T17:16:20.230Z,21.10
2018-10-06T17:18:50.931Z,21.10
2018-10-06T17:21:21.398Z,20.90
2018-10-06T17:23:51.980Z,20.90
2018-10-06T17:26:23.389Z,20.80
2018-10-06T17:28:54.373Z,20.70
2018-10-06T17:31:25.346Z,20.60
2018-10-06T17:33:55.778Z,20.60
2018-10-06T17:36:26.762Z,20.40
2018-10-06T17:38:57.300Z,20.40
2018-10-06T17:41:28.116Z,20.30
2018-10-06T17:43:58.682Z,20.40
2018-10-06T17:46:29.924Z,20.30
2018-10-06T17:49:01.558Z,20.20
2018-10-06T17:51:32.038Z,20.10
2018-10-06T17:54:02.759Z,20.10
2018-10-06T17:56:33.259Z,20.00
2018-10-06T17:59:03.862Z,19.90
2018-10-06T18:01:34.621Z,19.80
2018-10-06T18:04:05.499Z,19.80
2018-10-06T18:06:36.038Z,19.60
2018-10-06T18:09:08.457Z,19.50
2018-10-06T18:11:38.951Z,19.40
2018-10-06T18:14:09.786Z,19.20
2018-10-06T18:16:40.279Z,19.10
2018-10-06T18:19:11.033Z,19.00
2018-10-06T18:21:42.055Z,19.00
2018-10-06T18:24:12.613Z,19.00
2018-10-06T18:26:43.610Z,19.00
2018-10-06T18:29:14.127Z,19.00
2018-10-06T18:31:44.925Z,19.00
2018-10-06T18:34:15.408Z,19.00
2018-10-06T18:36:46.351Z,18.90
2018-10-06T18:39:16.707Z,18.90
2018-10-06T18:41:47.601Z,18.80
2018-10-06T18:44:18.117Z,18.80
2018-10-06T18:46:49.224Z,18.80
2018-10-06T18:49:19.690Z,18.70
2018-10-06T18:51:50.594Z,18.70
2018-10-06T18:54:21.050Z,18.60
2018-10-06T18:56:51.550Z,18.50
2018-10-06T18:59:22.320Z,18.50
2018-10-06T19:01:52.814Z,18.50
2018-10-06T19:04:24.464Z,18.40
2018-10-06T19:06:54.691Z,18.40
2018-10-06T19:09:25.567Z,18.30
2018-10-06T19:11:56.249Z,18.20
2018-10-06T19:14:26.706Z,18.20
2018-10-06T19:16:57.202Z,18.10
2018-10-06T19:19:27.645Z,18.00
2018-10-06T19:21:58.514Z,17.90
2018-10-06T19:24:30.407Z,17.80
2018-10-06T19:27:01.215Z,17.70
2018-10-06T19:29:32.226Z,17.60
2018-10-06T19:32:02.702Z,17.50
2018-10-06T19:34:33.883Z,17.50
2018-10-06T19:37:04.357Z,17.40
2018-10-06T19:39:35.513Z,17.30
2018-10-06T19:42:05.998Z,17.20
2018-10-06T19:44:36.790Z,17.20
2018-10-06T19:47:07.274Z,17.10
2018-10-06T19:49:37.738Z,17.10
2018-10-06T19:52:08.694Z,17.00
2018-10-06T19:54:39.142Z,17.00
2018-10-06T19:57:09.740Z,16.90
2018-10-06T19:59:40.211Z,16.80
2018-10-06T20:02:11.582Z,16.70
2018-10-06T20:04:42.052Z,16.70
2018-10-06T20:07:12.673Z,16.60
2018-10-06T20:09:43.155Z,16.60
2018-10-06T20:12:14.234Z,16.50
2018-10-06T20:14:44.730Z,16.50
2018-10-06T20:17:15.755Z,16.40
2018-10-06T20:19:46.216Z,16.40
2018-10-06T20:22:16.744Z,16.40
2018-10-06T20:24:47.309Z,16.30
2018-10-06T20:27:17.996Z,16.30
2018-10-06T20:29:48.678Z,16.30
2018-10-06T20:32:19.123Z,16.30
2018-10-06T20:34:49.790Z,16.20
2018-10-06T20:37:20.346Z,16.20
2018-10-06T20:39:50.943Z,16.20
2018-10-06T20:42:21.850Z,16.10
2018-10-06T20:44:52.311Z,16.10
2018-10-06T20:47:23.253Z,16.00
2018-10-06T20:49:53.707Z,16.00
2018-10-06T20:52:24.863Z,16.00
2018-10-06T20:54:55.322Z,15.90
2018-10-06T20:57:26.302Z,15.90
2018-10-06T20:59:56.756Z,15.90
2018-10-06T21:02:27.356Z,15.90
2018-10-06T21:04:58.191Z,15.90
2018-10-06T21:07:28.700Z,15.80
2018-10-06T21:09:59.869Z,15.70
2018-10-06T21:12:30.358Z,15.70
2018-10-06T21:15:01.599Z,15.70
2018-10-06T21:17:33.192Z,15.70
2018-10-06T21:20:04.236Z,15.70
2018-10-06T21:22:34.743Z,15.60
2018-10-06T21:25:06.106Z,15.60
2018-10-06T21:27:36.574Z,15.60
2018-10-06T21:30:07.034Z,15.60
2018-10-06T21:32:38.514Z,15.50
2018-10-06T21:35:08.997Z,15.40
2018-10-06T21:37:40.000Z,15.40
2018-10-06T21:40:11.331Z,15.40
2018-10-06T21:42:42.234Z,15.30
2018-10-06T21:45:12.805Z,15.30
2018-10-06T21:47:43.278Z,15.40
2018-10-06T21:50:13.760Z,15.50
2018-10-06T21:52:44.582Z,15.50
2018-10-06T21:55:15.238Z,15.50
2018-10-06T21:57:45.768Z,15.50
2018-10-06T22:00:16.706Z,15.40
2018-10-06T22:02:47.142Z,15.30
2018-10-06T22:05:17.807Z,15.30
2018-10-06T22:07:48.528Z,15.30
2018-10-06T22:10:18.983Z,15.30
2018-10-06T22:12:49.618Z,15.30
2018-10-06T22:15:20.317Z,15.10
2018-10-06T22:17:51.178Z,15.00
2018-10-06T22:20:21.952Z,15.00
2018-10-06T22:22:52.439Z,14.90
2018-10-06T22:25:22.906Z,14.80
2018-10-06T22:27:53.457Z,14.70
2018-10-06T22:30:24.088Z,14.70
2018-10-06T22:32:54.565Z,14.70
2018-10-06T22:35:25.566Z,14.70
2018-10-06T22:37:56.055Z,14.60
2018-10-06T22:40:26.862Z,14.60
2018-10-06T22:42:57.687Z,14.60
2018-10-06T22:45:28.147Z,14.70
2018-10-06T22:47:58.934Z,14.70
2018-10-06T22:50:29.394Z,14.80
2018-10-06T22:53:00.288Z,14.90
2018-10-06T22:55:30.816Z,14.90
2018-10-06T22:58:01.790Z,14.80
2018-10-06T23:00:32.370Z,14.70
2018-10-06T23:03:03.061Z,14.70
2018-10-06T23:05:33.601Z,14.70
2018-10-06T23:08:04.387Z,14.70
2018-10-06T23:10:34.778Z,14.80
2018-10-06T23:13:05.379Z,14.70
2018-10-06T23:15:35.823Z,14.60
2018-10-06T23:18:06.648Z,14.60
2018-10-06T23:20:37.142Z,14.60
2018-10-06T23:23:07.668Z,14.60
2018-10-06T23:25:38.170Z,14.60
2018-10-06T23:28:09.184Z,14.60
2018-10-06T23:30:39.799Z,14.60
2018-10-06T23:33:10.401Z,14.70
2018-10-06T23:35:40.938Z,14.90
2018-10-06T23:38:11.685Z,14.90
2018-10-06T23:40:42.134Z,14.80
2018-10-06T23:43:12.598Z,14.60
2018-10-06T23:45:43.311Z,14.50
2018-10-06T23:48:13.930Z,14.50
2018-10-06T23:50:44.579Z,14.40
2018-10-06T23:53:15.383Z,14.50
2018-10-06T23:55:45.981Z,14.40
2018-10-06T23:58:16.522Z,14.40
